Troupsburg, New York
Current Conditions -  °F | °C
As of 11:56 AM on Friday 28 Nov 2014 (Local Time) from KELZ Reporting Station
Light Snow Light Snow  
Wind Chill:   Ceiling: 3200
Heat Index: 21°   Visibility: 9mi
Dew Point:   Wind: 17mph
Humidity: 57%   Direction: 300°WNW
Pressure: 30.15"   Gusts: NA
Location:  42.04°N, 77.55°W
Report Text: KELZ 281656Z AUTO 30015KT 9SM -SN OVC032 M06/M13 A3015 RMK AO2 UPB09E13SNB13E23B48 SLP242 P0000 T10611133
Loading
Personal Weather Stations






























Interactive Weather Map New forecast layout! Learn more

10-Day Weather Forecast

Advertisements
Track Severe Weather on mobile